Time,TemperatureF,DewpointF,PressureIn,WindDirection,WindDirectionDegrees,WindSpeedMPH,WindSpeedGustMPH,Humidity,HourlyPrecipIn,Conditions,Clouds,dailyrainin,SoftwareType,DateUTC
2013-05-04 00:04:00,43.0,41.0,30.33,North,354,0.0,1.0,91,0.00,,,0.00,weatherlink.com 1.10,2013-05-04 04:04:00,
2013-05-04 00:19:00,43.0,41.0,30.33,NNW,342,0.0,2.0,91,0.00,,,0.00,weatherlink.com 1.10,2013-05-04 04:19:00,
2013-05-04 00:34:00,42.9,41.0,30.33,NNW,342,0.0,1.0,91,0.00,,,0.00,weatherlink.com 1.10,2013-05-04 04:34:00,
2013-05-04 00:49:00,42.8,40.0,30.32,NNW,335,0.0,4.0,91,0.00,,,0.00,weatherlink.com 1.10,2013-05-04 04:49:00,
2013-05-04 01:04:00,42.7,40.0,30.32,NNW,345,0.0,3.0,91,0.00,,,0.00,weatherlink.com 1.10,2013-05-04 05:04:00,
2013-05-04 01:19:00,42.5,40.0,30.32,NNW,347,0.0,2.0,90,0.00,,,0.00,weatherlink.com 1.10,2013-05-04 05:19:00,
2013-05-04 01:34:00,42.2,40.0,30.32,North,354,0.0,1.0,90,0.00,,,0.00,weatherlink.com 1.10,2013-05-04 05:34:00,
2013-05-04 01:49:00,41.9,40.0,30.32,NNE,29,0.0,0.0,91,0.00,,,0.00,weatherlink.com 1.10,2013-05-04 05:49:00,
2013-05-04 02:04:00,41.6,39.0,30.31,NNE,29,0.0,0.0,91,0.00,,,0.00,weatherlink.com 1.10,2013-05-04 06:04:00,
2013-05-04 02:19:00,41.5,39.0,30.31,NNE,29,0.0,0.0,92,0.00,,,0.00,weatherlink.com 1.10,2013-05-04 06:19:00,
2013-05-04 02:34:00,41.2,39.0,30.31,NNE,29,0.0,0.0,92,0.00,,,0.00,weatherlink.com 1.10,2013-05-04 06:34:00,
2013-05-04 02:49:00,40.9,39.0,30.31,NNE,29,0.0,1.0,92,0.00,,,0.00,weatherlink.com 1.10,2013-05-04 06:49:00,
2013-05-04 03:04:00,40.8,39.0,30.31,NNE,28,0.0,0.0,92,0.00,,,0.00,weatherlink.com 1.10,2013-05-04 07:04:00,
2013-05-04 03:19:00,40.9,39.0,30.31,NNE,30,0.0,2.0,93,0.00,,,0.00,weatherlink.com 1.10,2013-05-04 07:19:00,
2013-05-04 03:34:00,41.4,40.0,30.30,NNE,30,1.0,3.0,94,0.00,,,0.00,weatherlink.com 1.10,2013-05-04 07:34:00,
2013-05-04 03:49:00,42.1,41.0,30.30,North,8,0.0,4.0,94,0.00,,,0.00,weatherlink.com 1.10,2013-05-04 07:49:00,
2013-05-04 04:04:00,42.2,40.0,30.30,NE,42,0.0,2.0,93,0.00,,,0.00,weatherlink.com 1.10,2013-05-04 08:04:00,
2013-05-04 04:19:00,42.0,40.0,30.30,NE,42,0.0,1.0,93,0.00,,,0.00,weatherlink.com 1.10,2013-05-04 08:19:00,
2013-05-04 04:34:00,41.8,40.0,30.30,NE,42,0.0,0.0,93,0.00,,,0.00,weatherlink.com 1.10,2013-05-04 08:34:00,
2013-05-04 04:49:00,41.3,40.0,30.30,NE,42,0.0,0.0,93,0.00,,,0.00,weatherlink.com 1.10,2013-05-04 08:49:00,
2013-05-04 05:04:00,40.9,39.0,30.30,NE,42,0.0,0.0,93,0.00,,,0.00,weatherlink.com 1.10,2013-05-04 09:04:00,
2013-05-04 05:19:00,40.7,39.0,30.30,NE,42,0.0,0.0,93,0.00,,,0.00,weatherlink.com 1.10,2013-05-04 09:19:00,
2013-05-04 05:34:00,40.4,39.0,30.31,NE,42,0.0,0.0,93,0.00,,,0.00,weatherlink.com 1.10,2013-05-04 09:34:00,
2013-05-04 05:49:00,40.2,39.0,30.31,NE,42,0.0,0.0,94,0.00,,,0.00,weatherlink.com 1.10,2013-05-04 09:49:00,
2013-05-04 06:04:00,40.1,39.0,30.31,NE,42,0.0,0.0,94,0.00,,,0.00,weatherlink.com 1.10,2013-05-04 10:04:00,
2013-05-04 06:19:00,40.7,39.0,30.31,NE,42,0.0,0.0,95,0.00,,,0.00,weatherlink.com 1.10,2013-05-04 10:19:00,
2013-05-04 06:34:00,41.6,41.0,30.31,North,6,0.0,1.0,96,0.00,,,0.00,weatherlink.com 1.10,2013-05-04 10:34:00,
2013-05-04 06:49:00,42.8,42.0,30.31,North,356,0.0,2.0,96,0.00,,,0.00,weatherlink.com 1.10,2013-05-04 10:49:00,
2013-05-04 07:04:00,44.0,43.0,30.31,NE,56,0.0,4.0,96,0.00,,,0.00,weatherlink.com 1.10,2013-05-04 11:04:00,
2013-05-04 07:19:00,45.8,44.0,30.31,ENE,57,2.0,4.0,94,0.00,,,0.00,weatherlink.com 1.10,2013-05-04 11:19:00,
2013-05-04 07:34:00,47.3,45.0,30.31,East,87,0.0,8.0,91,0.00,,,0.00,weatherlink.com 1.10,2013-05-04 11:34:00,
2013-05-04 07:49:00,49.0,45.0,30.31,ENE,68,0.0,4.0,87,0.00,,,0.00,weatherlink.com 1.10,2013-05-04 11:49:00,
2013-05-04 08:05:00,50.8,45.0,30.31,East,94,5.0,6.0,81,0.00,,,0.00,weatherlink.com 1.10,2013-05-04 12:05:00,
2013-05-04 08:20:00,52.8,45.0,30.31,ENE,68,2.0,8.0,76,0.00,,,0.00,weatherlink.com 1.10,2013-05-04 12:20:00,
2013-05-04 08:35:00,54.2,45.0,30.31,NNW,332,0.0,5.0,70,0.00,,,0.00,weatherlink.com 1.10,2013-05-04 12:35:00,
2013-05-04 08:50:00,54.9,44.0,30.31,ENE,78,8.0,8.0,68,0.00,,,0.00,weatherlink.com 1.10,2013-05-04 12:50:00,
2013-05-04 09:05:00,56.2,45.0,30.31,East,91,9.0,9.0,67,0.00,,,0.00,weatherlink.com 1.10,2013-05-04 13:05:00,
2013-05-04 09:20:00,57.0,46.0,30.31,East,84,5.0,10.0,66,0.00,,,0.00,weatherlink.com 1.10,2013-05-04 13:20:00,
2013-05-04 09:35:00,58.1,45.0,30.30,NNE,13,3.0,8.0,62,0.00,,,0.00,weatherlink.com 1.10,2013-05-04 13:35:00,
2013-05-04 09:50:00,59.4,44.0,30.31,East,101,6.0,10.0,58,0.00,,,0.00,weatherlink.com 1.10,2013-05-04 13:50:00,
2013-05-04 10:05:00,59.8,43.0,30.31,East,97,6.0,7.0,54,0.00,,,0.00,weatherlink.com 1.10,2013-05-04 14:05:00,
2013-05-04 10:20:00,60.9,43.0,30.31,East,89,4.0,7.0,53,0.00,,,0.00,weatherlink.com 1.10,2013-05-04 14:20:00,
2013-05-04 10:35:00,61.6,44.0,30.31,NNW,343,0.0,9.0,53,0.00,,,0.00,weatherlink.com 1.10,2013-05-04 14:35:00,
2013-05-04 10:50:00,62.2,44.0,30.31,East,89,5.0,12.0,51,0.00,,,0.00,weatherlink.com 1.10,2013-05-04 14:50:00,
2013-05-04 11:05:00,62.6,43.0,30.31,East,93,8.0,11.0,49,0.00,,,0.00,weatherlink.com 1.10,2013-05-04 15:05:00,
2013-05-04 11:20:00,62.4,43.0,30.31,WSW,245,2.0,12.0,50,0.00,,,0.00,weatherlink.com 1.10,2013-05-04 15:20:00,
2013-05-04 11:35:00,62.3,43.0,30.31,East,101,9.0,14.0,50,0.00,,,0.00,weatherlink.com 1.10,2013-05-04 15:35:00,
2013-05-04 11:50:00,62.2,43.0,30.31,East,87,7.0,13.0,50,0.00,,,0.00,weatherlink.com 1.10,2013-05-04 15:50:00,
2013-05-04 12:05:00,62.4,42.0,30.30,East,84,1.0,11.0,47,0.00,,,0.00,weatherlink.com 1.10,2013-05-04 16:05:00,
2013-05-04 12:20:00,63.3,44.0,30.30,East,84,9.0,10.0,49,0.00,,,0.00,weatherlink.com 1.10,2013-05-04 16:20:00,
2013-05-04 12:35:00,63.4,43.0,30.30,East,89,6.0,10.0,47,0.00,,,0.00,weatherlink.com 1.10,2013-05-04 16:35:00,
2013-05-04 12:50:00,62.3,42.0,30.30,ESE,111,4.0,16.0,47,0.00,,,0.00,weatherlink.com 1.10,2013-05-04 16:50:00,
2013-05-04 13:05:00,62.7,43.0,30.30,ENE,70,5.0,11.0,48,0.00,,,0.00,weatherlink.com 1.10,2013-05-04 17:05:00,
2013-05-04 13:20:00,62.9,42.0,30.30,NE,46,7.0,15.0,47,0.00,,,0.00,weatherlink.com 1.10,2013-05-04 17:20:00,
2013-05-04 13:35:00,63.1,41.0,30.30,East,98,7.0,11.0,45,0.00,,,0.00,weatherlink.com 1.10,2013-05-04 17:35:00,
2013-05-04 13:50:00,62.9,40.0,30.30,East,87,7.0,14.0,44,0.00,,,0.00,weatherlink.com 1.10,2013-05-04 17:50:00,
2013-05-04 14:05:00,62.7,41.0,30.30,East,93,5.0,11.0,45,0.00,,,0.00,weatherlink.com 1.10,2013-05-04 18:05:00,
2013-05-04 14:20:00,62.4,41.0,30.30,East,87,6.0,12.0,46,0.00,,,0.00,weatherlink.com 1.10,2013-05-04 18:20:00,
2013-05-04 14:35:00,62.4,41.0,30.30,East,95,7.0,12.0,45,0.00,,,0.00,weatherlink.com 1.10,2013-05-04 18:35:00,
2013-05-04 14:50:00,61.1,42.0,30.29,East,101,5.0,14.0,50,0.00,,,0.00,weatherlink.com 1.10,2013-05-04 18:50:00,
2013-05-04 15:05:00,60.7,40.0,30.29,East,89,3.0,15.0,46,0.00,,,0.00,weatherlink.com 1.10,2013-05-04 19:05:00,
2013-05-04 15:20:00,61.0,40.0,30.28,East,84,7.0,11.0,46,0.00,,,0.00,weatherlink.com 1.10,2013-05-04 19:20:00,
2013-05-04 15:35:00,61.7,40.0,30.28,East,82,5.0,10.0,45,0.00,,,0.00,weatherlink.com 1.10,2013-05-04 19:35:00,
2013-05-04 15:50:00,61.8,40.0,30.28,East,87,2.0,15.0,45,0.00,,,0.00,weatherlink.com 1.10,2013-05-04 19:50:00,
2013-05-04 16:05:00,61.1,41.0,30.28,East,87,7.0,11.0,47,0.00,,,0.00,weatherlink.com 1.10,2013-05-04 20:05:00,
2013-05-04 16:20:00,60.2,40.0,30.28,ENE,70,3.0,13.0,48,0.00,,,0.00,weatherlink.com 1.10,2013-05-04 20:20:00,
2013-05-04 16:35:00,60.4,40.0,30.28,NE,37,2.0,8.0,48,0.00,,,0.00,weatherlink.com 1.10,2013-05-04 20:35:00,
2013-05-04 16:50:00,60.5,40.0,30.28,ESE,108,9.0,13.0,47,0.00,,,0.00,weatherlink.com 1.10,2013-05-04 20:50:00,
2013-05-04 17:05:00,58.6,41.0,30.28,NE,44,2.0,13.0,52,0.00,,,0.00,weatherlink.com 1.10,2013-05-04 21:05:00,
2013-05-04 17:20:00,57.8,41.0,30.28,East,99,8.0,11.0,54,0.00,,,0.00,weatherlink.com 1.10,2013-05-04 21:20:00,
2013-05-04 17:35:00,56.6,41.0,30.28,East,87,2.0,12.0,57,0.00,,,0.00,weatherlink.com 1.10,2013-05-04 21:35:00,
2013-05-04 17:50:00,55.1,41.0,30.28,East,84,10.0,13.0,59,0.00,,,0.00,weatherlink.com 1.10,2013-05-04 21:50:00,
2013-05-04 18:06:00,53.2,40.0,30.28,East,94,8.0,13.0,62,0.00,,,0.00,weatherlink.com 1.10,2013-05-04 22:06:00,
2013-05-04 18:21:00,52.2,40.0,30.29,East,101,6.0,9.0,63,0.00,,,0.00,weatherlink.com 1.10,2013-05-04 22:21:00,
2013-05-04 18:36:00,51.0,40.0,30.28,East,89,7.0,11.0,65,0.00,,,0.00,weatherlink.com 1.10,2013-05-04 22:36:00,
2013-05-04 18:51:00,49.9,39.0,30.28,East,89,6.0,10.0,67,0.00,,,0.00,weatherlink.com 1.10,2013-05-04 22:51:00,
2013-05-04 19:06:00,49.3,39.0,30.29,East,88,1.0,10.0,69,0.00,,,0.00,weatherlink.com 1.10,2013-05-04 23:06:00,
2013-05-04 19:21:00,48.8,39.0,30.29,East,94,3.0,6.0,70,0.00,,,0.00,weatherlink.com 1.10,2013-05-04 23:21:00,
2013-05-04 19:36:00,48.0,39.0,30.29,NNE,29,5.0,11.0,72,0.00,,,0.00,weatherlink.com 1.10,2013-05-04 23:36:00,
2013-05-04 19:51:00,47.3,39.0,30.29,NE,49,0.0,7.0,73,0.00,,,0.00,weatherlink.com 1.10,2013-05-04 23:51:00,
2013-05-04 20:06:00,47.0,39.0,30.29,East,94,4.0,7.0,74,0.00,,,0.00,weatherlink.com 1.10,2013-05-05 00:06:00,
2013-05-04 20:21:00,46.9,40.0,30.30,ENE,75,2.0,7.0,76,0.00,,,0.00,weatherlink.com 1.10,2013-05-05 00:21:00,
2013-05-04 20:36:00,46.4,39.0,30.30,NE,56,2.0,7.0,75,0.00,,,0.00,weatherlink.com 1.10,2013-05-05 00:36:00,
2013-05-04 20:51:00,45.9,39.0,30.30,ENE,66,1.0,5.0,77,0.00,,,0.00,weatherlink.com 1.10,2013-05-05 00:51:00,
2013-05-04 21:06:00,45.5,39.0,30.30,ENE,66,5.0,6.0,78,0.00,,,0.00,weatherlink.com 1.10,2013-05-05 01:06:00,
2013-05-04 21:21:00,45.2,39.0,30.30,ENE,63,0.0,4.0,79,0.00,,,0.00,weatherlink.com 1.10,2013-05-05 01:21:00,
2013-05-04 21:36:00,44.7,39.0,30.30,NNE,33,1.0,4.0,80,0.00,,,0.00,weatherlink.com 1.10,2013-05-05 01:36:00,
2013-05-04 21:51:00,44.2,39.0,30.30,ENE,62,0.0,4.0,82,0.00,,,0.00,weatherlink.com 1.10,2013-05-05 01:51:00,
2013-05-04 22:06:00,43.9,39.0,30.30,ENE,59,0.0,4.0,83,0.00,,,0.00,weatherlink.com 1.10,2013-05-05 02:06:00,
2013-05-04 22:21:00,43.5,39.0,30.30,ENE,74,0.0,1.0,83,0.00,,,0.00,weatherlink.com 1.10,2013-05-05 02:21:00,
2013-05-04 22:36:00,43.1,39.0,30.30,North,6,0.0,2.0,84,0.00,,,0.00,weatherlink.com 1.10,2013-05-05 02:36:00,
2013-05-04 22:51:00,42.7,39.0,30.30,ENE,64,2.0,4.0,85,0.00,,,0.00,weatherlink.com 1.10,2013-05-05 02:51:00,
2013-05-04 23:06:00,42.5,39.0,30.30,ENE,70,0.0,2.0,86,0.00,,,0.00,weatherlink.com 1.10,2013-05-05 03:06:00,
2013-05-04 23:21:00,42.3,39.0,30.29,ENE,59,0.0,2.0,87,0.00,,,0.00,weatherlink.com 1.10,2013-05-05 03:21:00,
2013-05-04 23:36:00,42.0,39.0,30.29,ENE,58,0.0,1.0,88,0.00,,,0.00,weatherlink.com 1.10,2013-05-05 03:36:00,
2013-05-04 23:51:00,41.8,39.0,30.29,NNE,30,0.0,2.0,88,0.00,,,0.00,weatherlink.com 1.10,2013-05-05 03:51:00,